KEUF

Weedon Field Airport

Eufaula, Alabama, USA
METAR KEUF 170758Z AUTO 00000KT 9SM CLR 02/02 A3023 RMK AO2 SLP236 T00220017
Observed Flight Rules
Dec-17 @ 07:58 UTC (20 minutes ago) Visual Flight Rules
Wind Visibility Clouds
Calm 9 miles
  • Clear skies
Temperatures Readings
Current 2°C / 36°F
Dewpoint 2°C / 36°F
Humidity 100%
Altimeter 30.23" Hg
Pressure 1023.6 hPa
Elevation 87
METAR KEUF 170758Z AUTO 00000KT 9SM CLR 02/02 A3023 RMK AO2 SLP236 T00220017
Observed Flight Rules
Dec-17 @ 07:58 UTC
(20 minutes ago)
VFR
Wind Visibility
Calm 9 miles
Clouds
  • Clear skies
Temperature Dewpoint
2°C / 36°F 2°C / 36°F
Humidity Altimeter Pressure
100% 30.23" Hg 1023.6 hPa